CheckWX is a tool to help pilots better visualize weather data.  It is not intended as a substitute for an official pre-flight weather briefing.

01:57:27 UTC

DTNH TAF
Enfidha - Hammamet International Airport
Enfidha, Tunisia
TAF DTNH 182300Z 1900/2000 35012KT CAVOK TEMPO 1902/1908 34018G28KT PROB30 TEMPO 1910/1915 4000 -SHRA FEW023TCU

Mar-19@
00:00 UTC

Mar-19 @ 00:00 UTC

Mar-20@
00:00 UTC

Mar-20 @ 00:00 UTC

TAF DTNH 182300Z 1900/2000 35012KT CAVOK
Wind
  • 350° at 12 KTS
Conditions
No significant weather
Cloud Levels
  • No significant clouds

Mar-19@
02:00 UTC

Mar-19 @ 02:00 UTC

Mar-19@
08:00 UTC

Mar-19 @ 08:00 UTC

TEMPO 1902/1908 34018G28KT

Temporary

Temporary Changes expected for less than half the time period

Wind
  • 340° at 18 KTS
  • {Gusting to 28 KTS

Mar-19@
10:00 UTC

Mar-19 @ 10:00 UTC

Mar-19@
15:00 UTC

Mar-19 @ 15:00 UTC

PROB30 TEMPO 1910/1915 4000 -SHRA FEW023TCU

Temporary - 30% Likelihood

Temporary - 30% Likelihood during this time.

Conditions
Light Rain
Cloud Levels
  • Few at 2,300' AGL